Mekoryuk, Alaska
Current Conditions -  °F | °C
As of 9:56 PM on Saturday 25 Oct 2014 (Local Time) from PAMY Reporting Station
Clear Clear  
Wind Chill: -5°   Ceiling: Unl
Heat Index: -1°   Visibility: 10mi
Dew Point: -6°   Wind: 8mph
Humidity: 69%   Direction: 220°SW
Pressure: 29.83"   Gusts: NA
Location:  60.39°N, 166.19°W
Report Text: PAMY 260556Z AUTO 22007KT 10SM CLR M01/M06 A2983 RMK AO1 10040 21020 52007
Loading
Personal Weather Stations






























Interactive Weather Map
Tropical Storm Tracking
New forecast layout! Learn more

10-Day Weather Forecast

Advertisements
Track Severe Weather on mobile